Terminal Aerodrome Forecast
Issued by NWS

Home | Current Version | Previous Version | Text Only | Print | Product List | Glossary On
Versions: 1 2 3 4 5 6 7 8 9 10 11 12 13 14 15 16 17 18 19 20 21 22 23 24 25 26 27 28 29 30 31 32 33
000
FTUS43 KSGF 010520
TAFBBG
TAF
KBBG 010520Z 0106/0206 24009G18KT P6SM OVC030
     FM010900 25013G24KT P6SM OVC025
     FM011200 25012G24KT P6SM OVC015
     FM011500 27013G25KT P6SM BKN020
     FM011700 27013G26KT P6SM SCT020
     FM012300 27011KT P6SM SKC=

USA.gov is the U.S. government's official web portal to all federal, state and local government web resources and services.